sensor_id;sensor_type;location;lat;lon;timestamp;P1;durP1;ratioP1;P2;durP2;ratioP2
68192;SDS011;55012;47.562;18.414;2023-09-08T00:01:55;12.88;;;7.30;;
68192;SDS011;55012;47.562;18.414;2023-09-08T00:04:21;13.90;;;6.90;;
68192;SDS011;55012;47.562;18.414;2023-09-08T00:06:47;15.98;;;7.03;;
68192;SDS011;55012;47.562;18.414;2023-09-08T00:09:12;13.45;;;6.88;;
68192;SDS011;55012;47.562;18.414;2023-09-08T00:11:38;12.15;;;6.80;;
68192;SDS011;55012;47.562;18.414;2023-09-08T00:14:04;11.75;;;6.68;;
68192;SDS011;55012;47.562;18.414;2023-09-08T00:16:29;14.07;;;6.43;;
68192;SDS011;55012;47.562;18.414;2023-09-08T00:18:55;10.68;;;6.10;;
68192;SDS011;55012;47.562;18.414;2023-09-08T00:21:22;11.43;;;5.80;;
68192;SDS011;55012;47.562;18.414;2023-09-08T00:23:47;11.63;;;6.28;;
68192;SDS011;55012;47.562;18.414;2023-09-08T00:26:13;12.52;;;6.10;;
68192;SDS011;55012;47.562;18.414;2023-09-08T00:28:38;10.60;;;6.03;;
68192;SDS011;55012;47.562;18.414;2023-09-08T00:31:04;12.93;;;6.53;;
68192;SDS011;55012;47.562;18.414;2023-09-08T00:33:30;13.30;;;6.50;;
68192;SDS011;55012;47.562;18.414;2023-09-08T00:35:55;11.45;;;6.45;;
68192;SDS011;55012;47.562;18.414;2023-09-08T00:38:22;13.27;;;6.25;;
68192;SDS011;55012;47.562;18.414;2023-09-08T00:40:48;11.68;;;6.22;;
68192;SDS011;55012;47.562;18.414;2023-09-08T00:43:13;13.07;;;6.28;;
68192;SDS011;55012;47.562;18.414;2023-09-08T00:45:40;12.10;;;5.95;;
68192;SDS011;55012;47.562;18.414;2023-09-08T00:48:08;9.98;;;5.93;;
68192;SDS011;55012;47.562;18.414;2023-09-08T00:50:35;9.85;;;5.88;;
68192;SDS011;55012;47.562;18.414;2023-09-08T00:53:02;13.75;;;5.90;;
68192;SDS011;55012;47.562;18.414;2023-09-08T00:55:28;14.85;;;6.57;;
68192;SDS011;55012;47.562;18.414;2023-09-08T00:57:55;14.32;;;6.90;;
68192;SDS011;55012;47.562;18.414;2023-09-08T01:00:21;16.05;;;7.97;;
68192;SDS011;55012;47.562;18.414;2023-09-08T01:02:47;16.63;;;7.82;;
68192;SDS011;55012;47.562;18.414;2023-09-08T01:05:13;17.40;;;7.47;;
68192;SDS011;55012;47.562;18.414;2023-09-08T01:07:39;13.27;;;7.20;;
68192;SDS011;55012;47.562;18.414;2023-09-08T01:10:05;16.85;;;7.43;;
68192;SDS011;55012;47.562;18.414;2023-09-08T01:12:32;18.42;;;7.75;;
68192;SDS011;55012;47.562;18.414;2023-09-08T01:15:00;14.18;;;7.15;;
68192;SDS011;55012;47.562;18.414;2023-09-08T01:17:26;15.80;;;8.48;;
68192;SDS011;55012;47.562;18.414;2023-09-08T01:19:52;16.10;;;7.90;;
68192;SDS011;55012;47.562;18.414;2023-09-08T01:22:37;15.30;;;7.80;;
68192;SDS011;55012;47.562;18.414;2023-09-08T01:25:29;12.20;;;7.85;;
68192;SDS011;55012;47.562;18.414;2023-09-08T01:28:00;15.45;;;7.93;;
68192;SDS011;55012;47.562;18.414;2023-09-08T01:30:28;16.08;;;8.20;;
68192;SDS011;55012;47.562;18.414;2023-09-08T01:32:57;16.33;;;8.38;;
68192;SDS011;55012;47.562;18.414;2023-09-08T01:35:24;15.18;;;8.45;;
68192;SDS011;55012;47.562;18.414;2023-09-08T01:37:50;17.75;;;8.90;;
68192;SDS011;55012;47.562;18.414;2023-09-08T01:40:15;19.83;;;9.13;;
68192;SDS011;55012;47.562;18.414;2023-09-08T01:42:41;19.52;;;9.23;;
68192;SDS011;55012;47.562;18.414;2023-09-08T01:45:07;15.98;;;9.23;;
68192;SDS011;55012;47.562;18.414;2023-09-08T01:47:33;15.68;;;8.35;;
68192;SDS011;55012;47.562;18.414;2023-09-08T01:49:59;14.23;;;8.13;;
68192;SDS011;55012;47.562;18.414;2023-09-08T01:52:25;13.82;;;7.68;;
68192;SDS011;55012;47.562;18.414;2023-09-08T01:54:51;11.77;;;6.80;;
68192;SDS011;55012;47.562;18.414;2023-09-08T01:57:16;11.73;;;7.20;;
68192;SDS011;55012;47.562;18.414;2023-09-08T01:59:42;10.20;;;6.63;;
68192;SDS011;55012;47.562;18.414;2023-09-08T02:02:09;10.10;;;6.00;;
68192;SDS011;55012;47.562;18.414;2023-09-08T02:04:35;9.27;;;6.05;;
68192;SDS011;55012;47.562;18.414;2023-09-08T02:07:00;10.80;;;6.28;;
68192;SDS011;55012;47.562;18.414;2023-09-08T02:09:44;9.70;;;6.68;;
68192;SDS011;55012;47.562;18.414;2023-09-08T02:12:10;10.10;;;6.63;;
68192;SDS011;55012;47.562;18.414;2023-09-08T02:14:35;10.80;;;6.22;;
68192;SDS011;55012;47.562;18.414;2023-09-08T02:17:01;9.02;;;6.05;;
68192;SDS011;55012;47.562;18.414;2023-09-08T02:19:27;8.55;;;5.70;;
68192;SDS011;55012;47.562;18.414;2023-09-08T02:21:52;8.90;;;5.63;;
68192;SDS011;55012;47.562;18.414;2023-09-08T02:24:18;9.18;;;5.95;;
68192;SDS011;55012;47.562;18.414;2023-09-08T02:26:43;17.05;;;8.82;;
68192;SDS011;55012;47.562;18.414;2023-09-08T02:29:09;10.80;;;7.35;;
68192;SDS011;55012;47.562;18.414;2023-09-08T02:31:34;10.13;;;6.57;;
68192;SDS011;55012;47.562;18.414;2023-09-08T02:33:59;9.50;;;6.55;;
68192;SDS011;55012;47.562;18.414;2023-09-08T02:36:25;9.60;;;6.03;;
68192;SDS011;55012;47.562;18.414;2023-09-08T02:38:54;9.80;;;5.88;;
68192;SDS011;55012;47.562;18.414;2023-09-08T02:41:21;8.95;;;5.60;;
68192;SDS011;55012;47.562;18.414;2023-09-08T02:43:47;7.93;;;5.15;;
68192;SDS011;55012;47.562;18.414;2023-09-08T02:46:13;8.20;;;5.20;;
68192;SDS011;55012;47.562;18.414;2023-09-08T02:48:39;8.48;;;5.00;;
68192;SDS011;55012;47.562;18.414;2023-09-08T02:51:05;7.70;;;5.22;;
68192;SDS011;55012;47.562;18.414;2023-09-08T02:53:30;7.63;;;4.78;;
68192;SDS011;55012;47.562;18.414;2023-09-08T02:55:56;7.25;;;5.05;;
68192;SDS011;55012;47.562;18.414;2023-09-08T02:58:22;7.57;;;5.15;;
68192;SDS011;55012;47.562;18.414;2023-09-08T03:00:48;6.53;;;4.80;;
68192;SDS011;55012;47.562;18.414;2023-09-08T03:03:14;7.60;;;4.97;;
68192;SDS011;55012;47.562;18.414;2023-09-08T03:05:39;8.65;;;4.93;;
68192;SDS011;55012;47.562;18.414;2023-09-08T03:08:05;7.70;;;4.75;;
68192;SDS011;55012;47.562;18.414;2023-09-08T03:10:30;7.60;;;4.93;;
68192;SDS011;55012;47.562;18.414;2023-09-08T03:12:59;7.22;;;4.65;;
68192;SDS011;55012;47.562;18.414;2023-09-08T03:15:28;7.00;;;4.70;;
68192;SDS011;55012;47.562;18.414;2023-09-08T03:17:54;9.38;;;4.97;;
68192;SDS011;55012;47.562;18.414;2023-09-08T03:20:20;6.95;;;4.85;;
68192;SDS011;55012;47.562;18.414;2023-09-08T03:22:45;9.10;;;5.05;;
68192;SDS011;55012;47.562;18.414;2023-09-08T03:25:12;6.80;;;4.78;;
68192;SDS011;55012;47.562;18.414;2023-09-08T03:27:38;8.77;;;5.05;;
68192;SDS011;55012;47.562;18.414;2023-09-08T03:30:04;9.00;;;5.80;;
68192;SDS011;55012;47.562;18.414;2023-09-08T03:32:30;8.32;;;5.50;;
68192;SDS011;55012;47.562;18.414;2023-09-08T03:34:56;8.45;;;5.35;;
68192;SDS011;55012;47.562;18.414;2023-09-08T03:37:21;8.05;;;5.20;;
68192;SDS011;55012;47.562;18.414;2023-09-08T03:39:47;9.23;;;5.05;;
68192;SDS011;55012;47.562;18.414;2023-09-08T03:42:12;6.22;;;4.53;;
68192;SDS011;55012;47.562;18.414;2023-09-08T03:44:38;8.73;;;5.28;;
68192;SDS011;55012;47.562;18.414;2023-09-08T03:47:03;8.65;;;5.20;;
68192;SDS011;55012;47.562;18.414;2023-09-08T03:49:30;7.95;;;5.10;;
68192;SDS011;55012;47.562;18.414;2023-09-08T03:51:55;9.93;;;5.43;;
68192;SDS011;55012;47.562;18.414;2023-09-08T03:54:21;7.97;;;5.15;;
68192;SDS011;55012;47.562;18.414;2023-09-08T03:56:46;8.55;;;5.05;;
68192;SDS011;55012;47.562;18.414;2023-09-08T03:59:12;18.20;;;7.05;;
68192;SDS011;55012;47.562;18.414;2023-09-08T04:01:37;13.68;;;7.22;;
68192;SDS011;55012;47.562;18.414;2023-09-08T04:04:03;13.98;;;6.25;;
68192;SDS011;55012;47.562;18.414;2023-09-08T04:06:28;14.43;;;6.80;;
68192;SDS011;55012;47.562;18.414;2023-09-08T04:08:54;13.93;;;6.47;;
68192;SDS011;55012;47.562;18.414;2023-09-08T04:11:19;12.27;;;6.60;;
68192;SDS011;55012;47.562;18.414;2023-09-08T04:13:44;14.52;;;7.10;;
68192;SDS011;55012;47.562;18.414;2023-09-08T04:16:10;12.23;;;6.65;;
68192;SDS011;55012;47.562;18.414;2023-09-08T04:18:35;11.75;;;6.57;;
68192;SDS011;55012;47.562;18.414;2023-09-08T04:21:00;14.40;;;6.30;;
68192;SDS011;55012;47.562;18.414;2023-09-08T04:23:26;10.57;;;6.07;;
68192;SDS011;55012;47.562;18.414;2023-09-08T04:25:51;10.15;;;5.80;;
68192;SDS011;55012;47.562;18.414;2023-09-08T04:28:17;12.70;;;5.97;;
68192;SDS011;55012;47.562;18.414;2023-09-08T04:30:42;10.50;;;6.15;;
68192;SDS011;55012;47.562;18.414;2023-09-08T04:33:07;13.20;;;6.40;;
68192;SDS011;55012;47.562;18.414;2023-09-08T04:35:33;14.15;;;6.80;;
68192;SDS011;55012;47.562;18.414;2023-09-08T04:37:58;12.60;;;7.05;;
68192;SDS011;55012;47.562;18.414;2023-09-08T04:40:24;14.80;;;6.82;;
68192;SDS011;55012;47.562;18.414;2023-09-08T04:42:49;11.90;;;6.38;;
68192;SDS011;55012;47.562;18.414;2023-09-08T04:45:15;10.68;;;5.78;;
68192;SDS011;55012;47.562;18.414;2023-09-08T04:47:40;11.23;;;5.93;;
68192;SDS011;55012;47.562;18.414;2023-09-08T04:50:06;10.10;;;5.57;;
68192;SDS011;55012;47.562;18.414;2023-09-08T04:52:31;9.10;;;5.72;;
68192;SDS011;55012;47.562;18.414;2023-09-08T04:54:57;11.77;;;6.63;;
68192;SDS011;55012;47.562;18.414;2023-09-08T04:57:22;14.82;;;8.65;;
68192;SDS011;55012;47.562;18.414;2023-09-08T04:59:48;21.13;;;10.32;;
68192;SDS011;55012;47.562;18.414;2023-09-08T05:02:13;17.00;;;10.43;;
68192;SDS011;55012;47.562;18.414;2023-09-08T05:04:40;20.67;;;11.02;;
68192;SDS011;55012;47.562;18.414;2023-09-08T05:07:05;21.23;;;11.02;;
68192;SDS011;55012;47.562;18.414;2023-09-08T05:09:31;19.00;;;9.98;;
68192;SDS011;55012;47.562;18.414;2023-09-08T05:11:56;14.15;;;9.00;;
68192;SDS011;55012;47.562;18.414;2023-09-08T05:14:24;15.88;;;8.45;;
68192;SDS011;55012;47.562;18.414;2023-09-08T05:16:49;14.13;;;8.02;;
68192;SDS011;55012;47.562;18.414;2023-09-08T05:19:20;16.25;;;7.60;;
68192;SDS011;55012;47.562;18.414;2023-09-08T05:21:46;14.80;;;7.35;;
68192;SDS011;55012;47.562;18.414;2023-09-08T05:24:11;16.42;;;7.10;;
68192;SDS011;55012;47.562;18.414;2023-09-08T05:26:37;13.40;;;6.60;;
68192;SDS011;55012;47.562;18.414;2023-09-08T05:29:06;16.80;;;6.45;;
68192;SDS011;55012;47.562;18.414;2023-09-08T05:31:32;18.75;;;6.90;;
68192;SDS011;55012;47.562;18.414;2023-09-08T05:33:57;16.77;;;7.18;;
68192;SDS011;55012;47.562;18.414;2023-09-08T05:36:23;12.05;;;6.35;;
68192;SDS011;55012;47.562;18.414;2023-09-08T05:38:48;13.52;;;6.50;;
68192;SDS011;55012;47.562;18.414;2023-09-08T05:41:13;10.98;;;6.10;;
68192;SDS011;55012;47.562;18.414;2023-09-08T05:43:39;11.60;;;6.30;;
68192;SDS011;55012;47.562;18.414;2023-09-08T05:46:04;13.30;;;6.45;;
68192;SDS011;55012;47.562;18.414;2023-09-08T05:48:31;15.13;;;8.63;;
68192;SDS011;55012;47.562;18.414;2023-09-08T05:50:56;17.70;;;7.88;;
68192;SDS011;55012;47.562;18.414;2023-09-08T05:53:22;14.18;;;7.95;;
68192;SDS011;55012;47.562;18.414;2023-09-08T05:55:47;18.05;;;7.90;;
68192;SDS011;55012;47.562;18.414;2023-09-08T05:58:13;14.52;;;7.82;;
68192;SDS011;55012;47.562;18.414;2023-09-08T06:00:38;15.30;;;8.10;;
68192;SDS011;55012;47.562;18.414;2023-09-08T06:03:04;13.23;;;7.18;;
68192;SDS011;55012;47.562;18.414;2023-09-08T06:05:30;13.93;;;6.90;;
68192;SDS011;55012;47.562;18.414;2023-09-08T06:07:55;12.10;;;6.78;;
68192;SDS011;55012;47.562;18.414;2023-09-08T06:10:21;17.95;;;6.70;;
68192;SDS011;55012;47.562;18.414;2023-09-08T06:12:46;16.27;;;7.35;;
68192;SDS011;55012;47.562;18.414;2023-09-08T06:15:15;16.35;;;7.30;;
68192;SDS011;55012;47.562;18.414;2023-09-08T06:17:41;17.05;;;7.25;;
68192;SDS011;55012;47.562;18.414;2023-09-08T06:20:06;18.85;;;8.70;;
68192;SDS011;55012;47.562;18.414;2023-09-08T06:22:32;17.75;;;8.07;;
68192;SDS011;55012;47.562;18.414;2023-09-08T06:24:59;14.93;;;7.75;;
68192;SDS011;55012;47.562;18.414;2023-09-08T06:27:24;15.45;;;7.93;;
68192;SDS011;55012;47.562;18.414;2023-09-08T06:29:50;16.92;;;7.88;;
68192;SDS011;55012;47.562;18.414;2023-09-08T06:32:16;14.75;;;7.80;;
68192;SDS011;55012;47.562;18.414;2023-09-08T06:34:41;12.23;;;7.22;;
68192;SDS011;55012;47.562;18.414;2023-09-08T06:37:08;11.90;;;6.95;;
68192;SDS011;55012;47.562;18.414;2023-09-08T06:39:33;11.18;;;6.47;;
68192;SDS011;55012;47.562;18.414;2023-09-08T06:41:59;11.48;;;6.50;;
68192;SDS011;55012;47.562;18.414;2023-09-08T06:44:24;12.85;;;6.82;;
68192;SDS011;55012;47.562;18.414;2023-09-08T06:46:49;11.57;;;6.32;;
68192;SDS011;55012;47.562;18.414;2023-09-08T06:49:15;14.02;;;6.75;;
68192;SDS011;55012;47.562;18.414;2023-09-08T06:51:40;12.32;;;6.65;;
68192;SDS011;55012;47.562;18.414;2023-09-08T06:54:06;10.40;;;6.10;;
68192;SDS011;55012;47.562;18.414;2023-09-08T06:56:31;9.88;;;6.30;;
68192;SDS011;55012;47.562;18.414;2023-09-08T06:58:57;10.07;;;5.97;;
68192;SDS011;55012;47.562;18.414;2023-09-08T07:01:25;10.95;;;6.70;;
68192;SDS011;55012;47.562;18.414;2023-09-08T07:03:50;23.58;;;6.68;;
68192;SDS011;55012;47.562;18.414;2023-09-08T07:06:16;14.77;;;6.68;;
68192;SDS011;55012;47.562;18.414;2023-09-08T07:08:41;10.40;;;6.22;;
68192;SDS011;55012;47.562;18.414;2023-09-08T07:11:07;15.80;;;6.38;;
68192;SDS011;55012;47.562;18.414;2023-09-08T07:13:33;13.25;;;6.40;;
68192;SDS011;55012;47.562;18.414;2023-09-08T07:15:59;13.80;;;6.53;;
68192;SDS011;55012;47.562;18.414;2023-09-08T07:18:24;11.70;;;6.10;;
68192;SDS011;55012;47.562;18.414;2023-09-08T07:20:50;14.68;;;6.93;;
68192;SDS011;55012;47.562;18.414;2023-09-08T07:23:16;19.65;;;6.55;;
68192;SDS011;55012;47.562;18.414;2023-09-08T07:25:49;15.77;;;6.35;;
68192;SDS011;55012;47.562;18.414;2023-09-08T07:28:15;14.48;;;6.45;;
68192;SDS011;55012;47.562;18.414;2023-09-08T07:30:41;15.60;;;6.80;;
68192;SDS011;55012;47.562;18.414;2023-09-08T07:33:07;15.57;;;6.43;;
68192;SDS011;55012;47.562;18.414;2023-09-08T07:35:36;10.98;;;6.82;;
68192;SDS011;55012;47.562;18.414;2023-09-08T07:38:02;13.57;;;6.60;;
68192;SDS011;55012;47.562;18.414;2023-09-08T07:40:27;20.58;;;6.97;;
68192;SDS011;55012;47.562;18.414;2023-09-08T07:42:53;10.40;;;6.80;;
68192;SDS011;55012;47.562;18.414;2023-09-08T07:45:18;13.10;;;6.97;;
68192;SDS011;55012;47.562;18.414;2023-09-08T07:47:44;15.02;;;7.18;;
68192;SDS011;55012;47.562;18.414;2023-09-08T07:50:25;15.23;;;7.00;;
68192;SDS011;55012;47.562;18.414;2023-09-08T07:52:54;9.68;;;6.13;;
68192;SDS011;55012;47.562;18.414;2023-09-08T07:55:21;11.63;;;6.82;;
68192;SDS011;55012;47.562;18.414;2023-09-08T07:57:48;14.70;;;6.60;;
68192;SDS011;55012;47.562;18.414;2023-09-08T08:00:14;13.18;;;6.43;;
68192;SDS011;55012;47.562;18.414;2023-09-08T08:02:45;14.60;;;6.50;;
68192;SDS011;55012;47.562;18.414;2023-09-08T08:05:11;9.48;;;6.05;;
68192;SDS011;55012;47.562;18.414;2023-09-08T08:07:40;11.23;;;6.78;;
68192;SDS011;55012;47.562;18.414;2023-09-08T08:10:07;12.02;;;6.68;;
68192;SDS011;55012;47.562;18.414;2023-09-08T08:12:32;12.20;;;6.97;;
68192;SDS011;55012;47.562;18.414;2023-09-08T08:14:58;11.20;;;6.40;;
68192;SDS011;55012;47.562;18.414;2023-09-08T08:17:25;11.88;;;6.75;;
68192;SDS011;55012;47.562;18.414;2023-09-08T08:19:55;13.05;;;6.63;;
68192;SDS011;55012;47.562;18.414;2023-09-08T08:22:20;9.35;;;6.35;;
68192;SDS011;55012;47.562;18.414;2023-09-08T08:24:46;9.07;;;6.10;;
68192;SDS011;55012;47.562;18.414;2023-09-08T08:27:12;9.95;;;6.18;;
68192;SDS011;55012;47.562;18.414;2023-09-08T08:29:38;9.52;;;6.47;;
68192;SDS011;55012;47.562;18.414;2023-09-08T08:32:04;10.10;;;6.22;;
68192;SDS011;55012;47.562;18.414;2023-09-08T08:34:29;9.07;;;6.40;;
68192;SDS011;55012;47.562;18.414;2023-09-08T08:36:55;8.65;;;6.35;;
68192;SDS011;55012;47.562;18.414;2023-09-08T08:39:21;10.77;;;6.45;;
68192;SDS011;55012;47.562;18.414;2023-09-08T08:41:46;10.13;;;6.40;;
68192;SDS011;55012;47.562;18.414;2023-09-08T08:44:11;10.85;;;6.50;;
68192;SDS011;55012;47.562;18.414;2023-09-08T08:46:38;9.40;;;6.35;;
68192;SDS011;55012;47.562;18.414;2023-09-08T08:49:05;9.13;;;6.10;;
68192;SDS011;55012;47.562;18.414;2023-09-08T08:51:31;9.15;;;6.07;;
68192;SDS011;55012;47.562;18.414;2023-09-08T08:53:57;10.45;;;6.05;;
68192;SDS011;55012;47.562;18.414;2023-09-08T08:56:23;11.68;;;6.00;;
68192;SDS011;55012;47.562;18.414;2023-09-08T08:58:49;8.75;;;6.25;;
68192;SDS011;55012;47.562;18.414;2023-09-08T09:01:18;10.73;;;6.40;;
68192;SDS011;55012;47.562;18.414;2023-09-08T09:03:49;12.20;;;6.50;;
68192;SDS011;55012;47.562;18.414;2023-09-08T09:06:15;9.93;;;6.47;;
68192;SDS011;55012;47.562;18.414;2023-09-08T09:08:44;11.80;;;6.70;;
68192;SDS011;55012;47.562;18.414;2023-09-08T09:11:10;12.80;;;6.13;;
68192;SDS011;55012;47.562;18.414;2023-09-08T09:13:36;11.25;;;6.68;;
68192;SDS011;55012;47.562;18.414;2023-09-08T09:16:02;9.02;;;6.07;;
68192;SDS011;55012;47.562;18.414;2023-09-08T09:18:29;8.88;;;5.70;;
68192;SDS011;55012;47.562;18.414;2023-09-08T09:20:56;9.77;;;5.85;;
68192;SDS011;55012;47.562;18.414;2023-09-08T09:23:41;10.25;;;5.70;;
68192;SDS011;55012;47.562;18.414;2023-09-08T09:26:06;13.35;;;5.90;;
68192;SDS011;55012;47.562;18.414;2023-09-08T09:28:32;9.70;;;5.88;;
68192;SDS011;55012;47.562;18.414;2023-09-08T09:30:57;9.13;;;5.82;;
68192;SDS011;55012;47.562;18.414;2023-09-08T09:33:24;9.45;;;5.72;;
68192;SDS011;55012;47.562;18.414;2023-09-08T09:35:51;8.05;;;5.05;;
68192;SDS011;55012;47.562;18.414;2023-09-08T09:38:19;9.40;;;5.53;;
68192;SDS011;55012;47.562;18.414;2023-09-08T09:40:45;7.80;;;5.13;;
68192;SDS011;55012;47.562;18.414;2023-09-08T09:43:12;7.22;;;5.03;;
68192;SDS011;55012;47.562;18.414;2023-09-08T09:45:39;8.80;;;5.22;;
68192;SDS011;55012;47.562;18.414;2023-09-08T09:48:06;7.30;;;5.10;;
68192;SDS011;55012;47.562;18.414;2023-09-08T09:50:33;8.77;;;5.50;;
68192;SDS011;55012;47.562;18.414;2023-09-08T09:53:01;6.15;;;4.50;;
68192;SDS011;55012;47.562;18.414;2023-09-08T09:55:28;6.65;;;4.43;;
68192;SDS011;55012;47.562;18.414;2023-09-08T09:57:55;8.27;;;4.78;;
68192;SDS011;55012;47.562;18.414;2023-09-08T10:00:24;6.05;;;4.82;;
68192;SDS011;55012;47.562;18.414;2023-09-08T10:02:51;7.72;;;4.70;;
68192;SDS011;55012;47.562;18.414;2023-09-08T10:05:18;6.97;;;4.88;;
68192;SDS011;55012;47.562;18.414;2023-09-08T10:07:44;6.30;;;4.30;;
68192;SDS011;55012;47.562;18.414;2023-09-08T10:10:13;6.63;;;4.40;;
68192;SDS011;55012;47.562;18.414;2023-09-08T10:12:39;6.45;;;4.10;;
68192;SDS011;55012;47.562;18.414;2023-09-08T10:15:10;6.05;;;4.50;;
68192;SDS011;55012;47.562;18.414;2023-09-08T10:17:37;5.72;;;4.25;;
68192;SDS011;55012;47.562;18.414;2023-09-08T10:20:04;6.28;;;4.30;;
68192;SDS011;55012;47.562;18.414;2023-09-08T10:22:36;6.22;;;4.47;;
68192;SDS011;55012;47.562;18.414;2023-09-08T10:25:11;5.75;;;4.50;;
68192;SDS011;55012;47.562;18.414;2023-09-08T10:27:40;8.45;;;4.90;;
68192;SDS011;55012;47.562;18.414;2023-09-08T10:30:06;6.55;;;4.80;;
68192;SDS011;55012;47.562;18.414;2023-09-08T10:32:33;6.35;;;4.50;;
68192;SDS011;55012;47.562;18.414;2023-09-08T10:35:00;6.90;;;4.78;;
68192;SDS011;55012;47.562;18.414;2023-09-08T10:37:31;7.60;;;4.65;;
68192;SDS011;55012;47.562;18.414;2023-09-08T10:40:19;6.78;;;4.65;;
68192;SDS011;55012;47.562;18.414;2023-09-08T10:42:49;7.53;;;4.28;;
68192;SDS011;55012;47.562;18.414;2023-09-08T10:45:30;6.95;;;4.50;;
68192;SDS011;55012;47.562;18.414;2023-09-08T10:47:56;9.45;;;4.80;;
68192;SDS011;55012;47.562;18.414;2023-09-08T10:50:26;8.20;;;4.50;;
68192;SDS011;55012;47.562;18.414;2023-09-08T10:53:11;6.22;;;4.13;;
68192;SDS011;55012;47.562;18.414;2023-09-08T10:58:31;7.25;;;4.78;;
68192;SDS011;55012;47.562;18.414;2023-09-08T11:00:59;6.07;;;4.10;;
68192;SDS011;55012;47.562;18.414;2023-09-08T11:03:27;7.32;;;4.50;;
68192;SDS011;55012;47.562;18.414;2023-09-08T11:06:10;6.13;;;4.68;;
68192;SDS011;55012;47.562;18.414;2023-09-08T11:08:45;7.32;;;4.60;;
68192;SDS011;55012;47.562;18.414;2023-09-08T11:11:12;9.13;;;5.03;;
68192;SDS011;55012;47.562;18.414;2023-09-08T11:13:39;7.32;;;4.90;;
68192;SDS011;55012;47.562;18.414;2023-09-08T11:16:10;8.32;;;4.80;;
68192;SDS011;55012;47.562;18.414;2023-09-08T11:18:36;6.55;;;4.63;;
68192;SDS011;55012;47.562;18.414;2023-09-08T11:21:02;8.90;;;5.70;;
68192;SDS011;55012;47.562;18.414;2023-09-08T11:23:28;8.07;;;5.22;;
68192;SDS011;55012;47.562;18.414;2023-09-08T11:25:54;10.23;;;5.70;;
68192;SDS011;55012;47.562;18.414;2023-09-08T11:28:23;9.18;;;5.32;;
68192;SDS011;55012;47.562;18.414;2023-09-08T11:30:49;8.70;;;5.30;;
68192;SDS011;55012;47.562;18.414;2023-09-08T11:33:19;9.15;;;5.63;;
68192;SDS011;55012;47.562;18.414;2023-09-08T11:35:52;10.55;;;5.45;;
68192;SDS011;55012;47.562;18.414;2023-09-08T11:38:25;7.60;;;5.07;;
68192;SDS011;55012;47.562;18.414;2023-09-08T11:40:52;10.70;;;5.65;;
68192;SDS011;55012;47.562;18.414;2023-09-08T11:43:21;7.63;;;5.43;;
68192;SDS011;55012;47.562;18.414;2023-09-08T11:45:47;9.30;;;5.20;;
68192;SDS011;55012;47.562;18.414;2023-09-08T11:48:13;9.95;;;5.50;;
68192;SDS011;55012;47.562;18.414;2023-09-08T11:50:40;8.10;;;4.88;;
68192;SDS011;55012;47.562;18.414;2023-09-08T11:53:07;7.13;;;4.93;;
68192;SDS011;55012;47.562;18.414;2023-09-08T11:55:34;7.25;;;5.40;;
68192;SDS011;55012;47.562;18.414;2023-09-08T11:58:02;6.43;;;5.25;;
68192;SDS011;55012;47.562;18.414;2023-09-08T12:00:28;9.48;;;5.30;;
68192;SDS011;55012;47.562;18.414;2023-09-08T12:02:54;7.85;;;4.70;;
68192;SDS011;55012;47.562;18.414;2023-09-08T12:05:25;8.20;;;5.45;;
68192;SDS011;55012;47.562;18.414;2023-09-08T12:07:51;6.53;;;4.68;;
68192;SDS011;55012;47.562;18.414;2023-09-08T12:10:18;8.10;;;4.97;;
68192;SDS011;55012;47.562;18.414;2023-09-08T12:12:44;7.38;;;4.90;;
68192;SDS011;55012;47.562;18.414;2023-09-08T12:15:11;8.05;;;5.03;;
68192;SDS011;55012;47.562;18.414;2023-09-08T12:17:46;6.75;;;5.10;;
68192;SDS011;55012;47.562;18.414;2023-09-08T12:20:15;7.20;;;4.68;;
68192;SDS011;55012;47.562;18.414;2023-09-08T12:22:48;8.85;;;4.90;;
68192;SDS011;55012;47.562;18.414;2023-09-08T12:25:15;8.93;;;5.07;;
68192;SDS011;55012;47.562;18.414;2023-09-08T12:27:41;11.20;;;5.47;;
68192;SDS011;55012;47.562;18.414;2023-09-08T12:30:07;8.18;;;5.03;;
68192;SDS011;55012;47.562;18.414;2023-09-08T12:32:34;8.93;;;4.85;;
68192;SDS011;55012;47.562;18.414;2023-09-08T12:35:02;6.80;;;5.00;;
68192;SDS011;55012;47.562;18.414;2023-09-08T12:37:29;6.82;;;5.00;;
68192;SDS011;55012;47.562;18.414;2023-09-08T12:39:55;9.20;;;5.00;;
68192;SDS011;55012;47.562;18.414;2023-09-08T12:42:21;7.53;;;5.30;;
68192;SDS011;55012;47.562;18.414;2023-09-08T12:44:51;7.65;;;4.90;;
68192;SDS011;55012;47.562;18.414;2023-09-08T12:47:17;6.93;;;4.80;;
68192;SDS011;55012;47.562;18.414;2023-09-08T12:49:43;7.07;;;5.10;;
68192;SDS011;55012;47.562;18.414;2023-09-08T12:52:08;7.10;;;5.07;;
68192;SDS011;55012;47.562;18.414;2023-09-08T12:54:34;7.40;;;5.07;;
68192;SDS011;55012;47.562;18.414;2023-09-08T12:57:00;7.35;;;5.32;;
68192;SDS011;55012;47.562;18.414;2023-09-08T12:59:26;7.38;;;5.13;;
68192;SDS011;55012;47.562;18.414;2023-09-08T13:01:52;9.43;;;5.10;;
68192;SDS011;55012;47.562;18.414;2023-09-08T13:04:17;9.90;;;5.10;;
68192;SDS011;55012;47.562;18.414;2023-09-08T13:06:44;8.55;;;5.00;;
68192;SDS011;55012;47.562;18.414;2023-09-08T13:09:11;7.45;;;5.32;;
68192;SDS011;55012;47.562;18.414;2023-09-08T13:11:36;7.25;;;5.22;;
68192;SDS011;55012;47.562;18.414;2023-09-08T13:14:02;6.80;;;4.97;;
68192;SDS011;55012;47.562;18.414;2023-09-08T13:16:28;8.63;;;4.70;;
68192;SDS011;55012;47.562;18.414;2023-09-08T13:18:54;8.88;;;5.03;;
68192;SDS011;55012;47.562;18.414;2023-09-08T13:21:20;7.57;;;4.72;;
68192;SDS011;55012;47.562;18.414;2023-09-08T13:23:46;8.13;;;4.90;;
68192;SDS011;55012;47.562;18.414;2023-09-08T13:26:11;6.60;;;4.93;;
68192;SDS011;55012;47.562;18.414;2023-09-08T13:28:37;7.53;;;4.70;;
68192;SDS011;55012;47.562;18.414;2023-09-08T13:31:04;6.00;;;4.80;;
68192;SDS011;55012;47.562;18.414;2023-09-08T13:33:30;6.70;;;4.65;;
68192;SDS011;55012;47.562;18.414;2023-09-08T13:35:55;8.32;;;5.22;;
68192;SDS011;55012;47.562;18.414;2023-09-08T13:38:21;6.45;;;4.82;;
68192;SDS011;55012;47.562;18.414;2023-09-08T13:40:46;9.90;;;4.80;;
68192;SDS011;55012;47.562;18.414;2023-09-08T13:43:12;10.70;;;4.70;;
68192;SDS011;55012;47.562;18.414;2023-09-08T13:45:37;6.53;;;4.57;;
68192;SDS011;55012;47.562;18.414;2023-09-08T13:48:03;7.88;;;4.70;;
68192;SDS011;55012;47.562;18.414;2023-09-08T13:50:31;8.80;;;5.20;;
68192;SDS011;55012;47.562;18.414;2023-09-08T13:52:56;7.60;;;5.35;;
68192;SDS011;55012;47.562;18.414;2023-09-08T13:55:22;6.85;;;4.85;;
68192;SDS011;55012;47.562;18.414;2023-09-08T13:57:49;7.47;;;5.07;;
68192;SDS011;55012;47.562;18.414;2023-09-08T14:00:15;10.73;;;5.40;;
68192;SDS011;55012;47.562;18.414;2023-09-08T14:02:45;6.40;;;4.97;;
68192;SDS011;55012;47.562;18.414;2023-09-08T14:05:10;8.27;;;4.97;;
68192;SDS011;55012;47.562;18.414;2023-09-08T14:07:36;7.95;;;4.85;;
68192;SDS011;55012;47.562;18.414;2023-09-08T14:10:02;8.00;;;5.07;;
68192;SDS011;55012;47.562;18.414;2023-09-08T14:12:32;6.60;;;4.60;;
68192;SDS011;55012;47.562;18.414;2023-09-08T14:14:58;6.28;;;4.85;;
68192;SDS011;55012;47.562;18.414;2023-09-08T14:17:23;13.07;;;4.90;;
68192;SDS011;55012;47.562;18.414;2023-09-08T14:19:49;6.43;;;4.43;;
68192;SDS011;55012;47.562;18.414;2023-09-08T14:22:14;9.18;;;4.47;;
68192;SDS011;55012;47.562;18.414;2023-09-08T14:24:40;5.70;;;4.57;;
68192;SDS011;55012;47.562;18.414;2023-09-08T14:27:05;6.82;;;4.68;;
68192;SDS011;55012;47.562;18.414;2023-09-08T14:29:32;5.60;;;4.20;;